createdAt,value
2018-07-05T00:01:21.463Z,80.65
2018-07-05T00:02:21.396Z,81.42
2018-07-05T00:04:14.173Z,81.52
2018-07-05T00:05:14.146Z,79.69
2018-07-05T00:07:06.897Z,82.09
2018-07-05T00:08:06.842Z,82.19
2018-07-05T00:09:59.590Z,80.94
2018-07-05T00:10:59.528Z,80.27
2018-07-05T00:12:52.322Z,81.42
2018-07-05T00:13:52.262Z,79.40
2018-07-05T00:15:45.049Z,80.42
2018-07-05T00:16:44.975Z,80.04
2018-07-05T00:18:37.753Z,80.99
2018-07-05T00:19:37.714Z,82.53
2018-07-05T00:21:30.483Z,82.15
2018-07-05T00:22:30.405Z,80.99
2018-07-05T00:24:23.173Z,81.09
2018-07-05T00:25:23.119Z,81.96
2018-07-05T00:27:15.916Z,83.30
2018-07-05T00:28:15.842Z,83.78
2018-07-05T00:30:08.616Z,82.15
2018-07-05T00:31:08.564Z,82.24
2018-07-05T00:33:01.339Z,81.86
2018-07-05T00:34:01.269Z,81.09
2018-07-05T00:35:54.049Z,82.63
2018-07-05T00:36:53.982Z,82.63
2018-07-05T00:38:46.746Z,83.49
2018-07-05T00:39:46.692Z,82.92
2018-07-05T00:41:39.521Z,83.11
2018-07-05T00:42:39.451Z,83.97
2018-07-05T00:44:32.211Z,82.53
2018-07-05T00:45:32.138Z,82.43
2018-07-05T00:47:24.927Z,83.78
2018-07-05T00:48:24.861Z,83.01
2018-07-05T00:50:17.634Z,82.73
2018-07-05T00:51:17.560Z,81.09
2018-07-05T00:53:10.371Z,81.96
2018-07-05T00:54:10.301Z,82.92
2018-07-05T00:56:03.073Z,82.86
2018-07-05T00:57:03.000Z,82.76
2018-07-05T00:58:55.779Z,83.59
2018-07-05T00:59:55.717Z,83.40
2018-07-05T01:01:48.499Z,83.59
2018-07-05T01:02:48.421Z,82.63
2018-07-05T01:04:41.199Z,81.76
2018-07-05T01:05:41.135Z,82.73
2018-07-05T01:07:33.916Z,83.30
2018-07-05T01:08:33.858Z,83.20
2018-07-05T01:10:41.217Z,83.59
2018-07-05T01:11:26.581Z,83.59
2018-07-05T01:13:19.352Z,81.86
2018-07-05T01:14:19.272Z,80.90
2018-07-05T01:16:12.071Z,82.30
2018-07-05T01:17:11.987Z,81.63
2018-07-05T01:19:04.801Z,82.68
2018-07-05T01:20:04.719Z,83.84
2018-07-05T01:21:57.541Z,81.72
2018-07-05T01:22:57.471Z,82.68
2018-07-05T01:24:50.271Z,81.63
2018-07-05T01:25:50.211Z,82.59
2018-07-05T01:27:42.997Z,82.10
2018-07-05T01:28:42.923Z,82.45
2018-07-05T01:30:35.694Z,83.36
2018-07-05T01:31:35.670Z,83.26
2018-07-05T01:33:28.464Z,84.12
2018-07-05T01:34:28.339Z,83.26
2018-07-05T01:36:21.115Z,82.64
2018-07-05T01:37:21.053Z,82.45
2018-07-05T01:39:13.830Z,82.74
2018-07-05T01:40:13.756Z,82.93
2018-07-05T01:42:06.530Z,82.74
2018-07-05T01:43:06.461Z,83.22
2018-07-05T01:44:59.242Z,82.64
2018-07-05T01:45:59.187Z,83.98
2018-07-05T01:47:51.965Z,84.47
2018-07-05T01:48:51.894Z,85.62
2018-07-05T01:50:44.660Z,85.04
2018-07-05T01:51:44.601Z,85.24
2018-07-05T01:53:37.402Z,85.33
2018-07-05T01:54:37.314Z,85.04
2018-07-05T01:56:30.088Z,85.14
2018-07-05T01:57:30.027Z,84.95
2018-07-05T01:59:22.832Z,83.03
2018-07-05T02:00:22.733Z,83.12
2018-07-05T02:02:15.507Z,85.85
2018-07-05T02:03:15.437Z,85.33
2018-07-05T02:05:08.201Z,84.66
2018-07-05T02:06:08.150Z,83.03
2018-07-05T02:08:00.974Z,84.37
2018-07-05T02:09:00.881Z,82.93
2018-07-05T02:10:53.692Z,82.35
2018-07-05T02:11:53.621Z,82.64
2018-07-05T02:13:46.403Z,82.35
2018-07-05T02:14:46.329Z,82.31
2018-07-05T02:16:39.103Z,83.47
2018-07-05T02:17:39.043Z,84.18
2018-07-05T02:19:31.871Z,85.86
2018-07-05T02:20:31.762Z,86.19
2018-07-05T02:22:24.548Z,84.08
2018-07-05T02:23:24.472Z,83.80
2018-07-05T02:25:17.272Z,83.85
2018-07-05T02:26:17.203Z,84.14
2018-07-05T02:28:09.999Z,83.37
2018-07-05T02:29:09.915Z,86.44
2018-07-05T02:31:02.785Z,84.14
2018-07-05T02:32:02.669Z,84.61
2018-07-05T02:33:55.430Z,85.58
2018-07-05T02:34:55.362Z,86.44
2018-07-05T02:36:48.127Z,85.86
2018-07-05T02:37:48.066Z,86.00
2018-07-05T02:39:40.855Z,86.38
2018-07-05T02:40:40.785Z,86.96
2018-07-05T02:42:33.551Z,86.68
2018-07-05T02:43:33.485Z,86.48
2018-07-05T02:45:26.254Z,86.29
2018-07-05T02:46:26.191Z,85.81
2018-07-05T02:48:18.975Z,85.81
2018-07-05T02:49:18.903Z,85.91
2018-07-05T02:51:11.668Z,85.42
2018-07-05T02:52:11.606Z,85.86
2018-07-05T02:54:04.388Z,87.35
2018-07-05T02:55:04.317Z,87.35
2018-07-05T02:56:57.081Z,88.40
2018-07-05T02:57:57.021Z,87.82
2018-07-05T02:59:49.796Z,88.11
2018-07-05T03:00:49.724Z,86.00
2018-07-05T03:02:42.554Z,88.02
2018-07-05T03:03:42.480Z,87.35
2018-07-05T03:05:35.295Z,88.40
2018-07-05T03:06:35.224Z,87.44
2018-07-05T03:08:28.055Z,86.68
2018-07-05T03:09:27.979Z,85.91
2018-07-05T03:11:20.772Z,85.42
2018-07-05T03:12:20.717Z,86.48
2018-07-05T03:14:13.498Z,87.49
2018-07-05T03:15:13.432Z,87.10
2018-07-05T03:17:06.194Z,86.43
2018-07-05T03:18:06.124Z,84.60
2018-07-05T03:19:58.898Z,86.72
2018-07-05T03:20:58.827Z,85.85
2018-07-05T03:22:51.593Z,86.18
2018-07-05T03:23:51.536Z,84.94
2018-07-05T03:25:44.338Z,83.97
2018-07-05T03:26:44.273Z,84.22
2018-07-05T03:28:37.089Z,85.13
2018-07-05T03:29:37.021Z,86.18
2018-07-05T03:31:29.812Z,84.55
2018-07-05T03:32:29.749Z,86.95
2018-07-05T03:34:22.521Z,87.62
2018-07-05T03:35:22.449Z,86.47
2018-07-05T03:37:15.236Z,87.15
2018-07-05T03:38:15.192Z,86.09
2018-07-05T03:40:07.965Z,85.07
2018-07-05T03:41:07.896Z,85.07
2018-07-05T03:43:00.690Z,85.75
2018-07-05T03:44:00.596Z,84.88
2018-07-05T03:45:53.376Z,84.01
2018-07-05T03:46:53.310Z,85.07
2018-07-05T03:48:46.081Z,85.55
2018-07-05T03:49:46.014Z,84.01
2018-07-05T03:51:38.846Z,84.21
2018-07-05T03:52:38.737Z,84.01
2018-07-05T03:54:31.525Z,84.21
2018-07-05T03:55:31.456Z,85.27
2018-07-05T03:57:24.219Z,85.27
2018-07-05T03:58:24.170Z,86.99
2018-07-05T04:00:16.988Z,86.42
2018-07-05T04:01:16.913Z,86.32
2018-07-05T04:03:09.712Z,86.71
2018-07-05T04:04:09.643Z,85.11
2018-07-05T04:06:02.432Z,83.86
2018-07-05T04:07:02.360Z,84.63
2018-07-05T04:08:55.155Z,85.11
2018-07-05T04:09:55.078Z,84.06
2018-07-05T04:11:47.847Z,83.39
2018-07-05T04:12:47.796Z,83.23
2018-07-05T04:14:40.575Z,83.33
2018-07-05T04:15:40.502Z,84.97
2018-07-05T04:17:33.265Z,83.72
2018-07-05T04:18:33.208Z,84.05
2018-07-05T04:20:25.988Z,83.99
2018-07-05T04:21:25.909Z,84.86
2018-07-05T04:23:18.676Z,84.38
2018-07-05T04:24:18.642Z,83.45
2018-07-05T04:26:11.398Z,82.29
2018-07-05T04:27:11.330Z,83.20
2018-07-05T04:29:04.115Z,82.92
2018-07-05T04:30:04.037Z,81.27
2018-07-05T04:31:56.817Z,82.09
2018-07-05T04:32:56.753Z,82.18
2018-07-05T04:34:49.537Z,81.41
2018-07-05T04:35:49.463Z,81.12
2018-07-05T04:37:42.256Z,81.26
2018-07-05T04:38:42.199Z,80.30
2018-07-05T04:40:34.977Z,80.97
2018-07-05T04:41:34.904Z,80.30
2018-07-05T04:43:27.710Z,79.95
2018-07-05T04:44:27.646Z,78.85
2018-07-05T04:46:20.443Z,78.85
2018-07-05T04:47:20.407Z,78.75
2018-07-05T04:49:13.161Z,82.61
2018-07-05T04:50:13.083Z,78.94
2018-07-05T04:52:05.848Z,80.05
2018-07-05T04:53:05.810Z,77.01
2018-07-05T04:54:58.570Z,77.19
2018-07-05T04:55:58.494Z,75.26
2018-07-05T04:57:51.265Z,77.67
2018-07-05T04:58:51.201Z,76.93
2018-07-05T05:00:43.982Z,77.51
2018-07-05T05:01:43.919Z,77.84
2018-07-05T05:03:36.713Z,74.85
2018-07-05T05:04:36.631Z,75.23
2018-07-05T05:06:29.612Z,73.94
2018-07-05T05:07:29.334Z,76.26
2018-07-05T05:09:22.174Z,78.96
2018-07-05T05:10:22.046Z,76.93
2018-07-05T05:12:14.817Z,74.79
2018-07-05T05:13:14.758Z,72.95
2018-07-05T05:15:07.542Z,74.55
2018-07-05T05:16:07.468Z,72.14
2018-07-05T05:18:00.257Z,71.14
2018-07-05T05:19:00.248Z,69.37
2018-07-05T05:20:52.973Z,66.50
2018-07-05T05:21:52.901Z,66.76
2018-07-05T05:23:45.667Z,66.92
2018-07-05T05:24:45.632Z,67.44
2018-07-05T05:26:38.407Z,64.75
2018-07-05T05:27:38.337Z,67.76
2018-07-05T05:29:31.130Z,61.65
2018-07-05T05:30:31.061Z,65.50
2018-07-05T05:32:23.839Z,69.24
2018-07-05T05:33:23.779Z,68.08
2018-07-05T05:35:16.563Z,69.57
2018-07-05T05:36:16.490Z,69.64
2018-07-05T05:38:09.260Z,64.49
2018-07-05T05:39:09.205Z,62.67
2018-07-05T05:41:02.011Z,57.93
2018-07-05T05:42:01.947Z,59.85
2018-07-05T05:43:54.715Z,57.15
2018-07-05T05:44:54.697Z,55.89
2018-07-05T05:46:47.455Z,59.39
2018-07-05T05:47:47.430Z,59.30
2018-07-05T05:49:40.202Z,59.33
2018-07-05T05:50:40.114Z,56.62
2018-07-05T05:52:32.897Z,57.24
2018-07-05T05:53:32.830Z,54.80
2018-07-05T05:55:25.615Z,56.20
2018-07-05T05:56:25.549Z,52.39
2018-07-05T05:58:18.329Z,55.15
2018-07-05T05:59:18.277Z,54.95
2018-07-05T06:01:11.068Z,53.81
2018-07-05T06:02:10.994Z,54.88
2018-07-05T06:04:03.816Z,51.88
2018-07-05T06:05:03.751Z,51.68
2018-07-05T06:06:56.550Z,52.66
2018-07-05T06:07:56.486Z,52.86
2018-07-05T06:09:49.279Z,50.44
2018-07-05T06:10:49.296Z,52.27
2018-07-05T06:12:42.012Z,51.49
2018-07-05T06:13:41.944Z,51.68
2018-07-05T06:15:34.737Z,50.83
2018-07-05T06:16:34.680Z,52.59
2018-07-05T06:18:27.499Z,52.71
2018-07-05T06:19:27.397Z,51.81
2018-07-05T06:21:20.197Z,52.03
2018-07-05T06:22:20.121Z,50.88
2018-07-05T06:24:12.905Z,51.66
2018-07-05T06:25:12.852Z,50.42
2018-07-05T06:27:05.664Z,50.22
2018-07-05T06:28:05.588Z,51.00
2018-07-05T06:29:58.392Z,48.09
2018-07-05T06:30:58.336Z,49.63
2018-07-05T06:32:51.136Z,48.28
2018-07-05T06:33:51.064Z,50.76
2018-07-05T06:35:43.870Z,47.62
2018-07-05T06:36:43.792Z,49.41
2018-07-05T06:38:36.570Z,47.64
2018-07-05T06:39:36.536Z,47.16
2018-07-05T06:41:29.310Z,49.99
2018-07-05T06:42:29.237Z,46.98
2018-07-05T06:44:22.024Z,46.69
2018-07-05T06:45:21.974Z,48.55
2018-07-05T06:47:14.757Z,46.71
2018-07-05T06:48:14.705Z,48.38
2018-07-05T06:50:07.478Z,45.43
2018-07-05T06:51:07.424Z,47.03
2018-07-05T06:53:00.260Z,48.11
2018-07-05T06:54:00.145Z,46.85
2018-07-05T06:55:52.961Z,49.43
2018-07-05T06:56:52.906Z,45.30
2018-07-05T06:58:45.692Z,48.25
2018-07-05T06:59:45.634Z,44.15
2018-07-05T07:01:38.451Z,44.79
2018-07-05T07:02:38.376Z,44.79
2018-07-05T07:04:31.147Z,44.52
2018-07-05T07:05:31.096Z,42.94
2018-07-05T07:07:23.896Z,44.42
2018-07-05T07:08:23.839Z,43.83
2018-07-05T07:10:16.621Z,45.32
2018-07-05T07:11:16.571Z,44.93
2018-07-05T07:13:09.369Z,41.39
2018-07-05T07:14:09.308Z,42.96
2018-07-05T07:16:02.137Z,43.83
2018-07-05T07:17:02.029Z,43.59
2018-07-05T07:18:54.824Z,45.34
2018-07-05T07:19:54.789Z,47.37
2018-07-05T07:21:47.570Z,42.51
2018-07-05T07:22:47.491Z,44.55
2018-07-05T07:24:40.280Z,45.70
2018-07-05T07:25:40.226Z,44.21
2018-07-05T07:27:33.042Z,49.09
2018-07-05T07:28:32.976Z,46.23
2018-07-05T07:30:25.765Z,46.08
2018-07-05T07:31:25.813Z,51.54
2018-07-05T07:33:18.518Z,54.15
2018-07-05T07:34:18.435Z,54.93
2018-07-05T07:36:11.236Z,53.52
2018-07-05T07:37:11.167Z,53.09
2018-07-05T07:39:03.952Z,51.92
2018-07-05T07:40:03.899Z,50.75
2018-07-05T07:41:56.728Z,55.79
2018-07-05T07:42:56.623Z,50.68
2018-07-05T07:44:49.423Z,53.13
2018-07-05T07:45:49.452Z,52.54
2018-07-05T07:47:42.179Z,51.95
2018-07-05T07:48:42.107Z,51.68
2018-07-05T07:50:34.909Z,54.83
2018-07-05T07:51:34.832Z,46.53
2018-07-05T07:53:27.629Z,45.28
2018-07-05T07:54:27.560Z,44.87
2018-07-05T07:56:20.341Z,46.72
2018-07-05T07:57:20.285Z,49.43
2018-07-05T07:59:13.074Z,47.48
2018-07-05T08:00:13.005Z,49.02
2018-07-05T08:02:05.820Z,54.07
2018-07-05T08:03:05.745Z,49.10
2018-07-05T08:04:58.625Z,53.75
2018-07-05T08:05:58.568Z,54.93
2018-07-05T08:07:51.363Z,53.24
2018-07-05T08:08:51.300Z,50.31
2018-07-05T08:10:44.083Z,50.31
2018-07-05T08:11:44.033Z,53.60
2018-07-05T08:13:36.831Z,57.99
2018-07-05T08:14:36.764Z,50.29
2018-07-05T08:16:29.556Z,57.70
2018-07-05T08:17:29.497Z,57.31
2018-07-05T08:19:22.292Z,55.75
2018-07-05T08:20:22.234Z,57.70
2018-07-05T08:22:14.996Z,54.02
2018-07-05T08:23:14.946Z,49.39
2018-07-05T08:25:07.764Z,52.05
2018-07-05T08:26:07.693Z,46.00
2018-07-05T08:28:00.487Z,49.49
2018-07-05T08:29:00.418Z,54.46
2018-07-05T08:30:53.210Z,50.61
2018-07-05T08:31:53.153Z,44.87
2018-07-05T08:33:45.950Z,46.40
2018-07-05T08:34:45.882Z,48.07
2018-07-05T08:36:38.670Z,49.92
2018-07-05T08:37:38.611Z,47.57
2018-07-05T08:39:31.450Z,44.70
2018-07-05T08:40:31.348Z,49.14
2018-07-05T08:42:24.145Z,42.51
2018-07-05T08:43:24.078Z,45.79
2018-07-05T08:45:16.876Z,45.74
2018-07-05T08:46:16.806Z,44.52
2018-07-05T08:48:09.592Z,39.92
2018-07-05T08:49:09.533Z,38.44
2018-07-05T08:51:02.337Z,40.45
2018-07-05T08:52:02.266Z,38.48
2018-07-05T08:53:55.059Z,39.09
2018-07-05T08:54:54.993Z,43.93
2018-07-05T08:56:47.815Z,41.27
2018-07-05T08:57:47.755Z,39.79
2018-07-05T08:59:40.559Z,41.09
2018-07-05T09:00:40.486Z,38.04
2018-07-05T09:02:33.272Z,38.73
2018-07-05T09:03:33.215Z,36.07
2018-07-05T09:05:26.012Z,35.88
2018-07-05T09:06:25.994Z,43.27
2018-07-05T09:08:18.734Z,37.57
2018-07-05T09:09:18.677Z,37.45
2018-07-05T09:11:11.465Z,34.00
2018-07-05T09:12:11.403Z,35.28
2018-07-05T09:14:04.208Z,37.66
2018-07-05T09:15:04.143Z,35.99
2018-07-05T09:16:56.945Z,40.64
2018-07-05T09:17:57.104Z,37.98
2018-07-05T09:19:49.714Z,38.98
2018-07-05T09:20:49.671Z,33.34
2018-07-05T09:22:42.437Z,34.41
2018-07-05T09:23:42.427Z,35.40
2018-07-05T09:25:35.241Z,33.42
2018-07-05T09:26:35.164Z,34.41
2018-07-05T09:28:27.975Z,32.72
2018-07-05T09:29:27.902Z,39.04
2018-07-05T09:31:20.699Z,36.78
2018-07-05T09:32:20.640Z,34.91
2018-07-05T09:34:13.442Z,35.10
2018-07-05T09:35:13.377Z,37.37
2018-07-05T09:37:06.186Z,36.48
2018-07-05T09:38:06.114Z,37.78
2018-07-05T09:39:58.920Z,34.41
2018-07-05T09:40:58.923Z,34.01
2018-07-05T09:42:51.642Z,37.49
2018-07-05T09:43:51.590Z,36.90
2018-07-05T09:45:44.410Z,37.70
2018-07-05T09:46:44.342Z,33.94
2018-07-05T09:48:37.136Z,34.13
2018-07-05T09:49:37.088Z,32.75
2018-07-05T09:51:29.925Z,34.01
2018-07-05T09:52:29.832Z,36.09
2018-07-05T09:54:22.624Z,36.21
2018-07-05T09:55:22.634Z,37.39
2018-07-05T09:57:15.352Z,36.32
2018-07-05T09:58:15.305Z,35.31
2018-07-05T10:00:08.095Z,35.50
2018-07-05T10:01:08.029Z,36.36
2018-07-05T10:03:00.844Z,39.70
2018-07-05T10:04:00.772Z,34.54
2018-07-05T10:05:53.567Z,37.79
2018-07-05T10:06:53.502Z,35.33
2018-07-05T10:08:46.297Z,35.84
2018-07-05T10:09:46.237Z,35.86
2018-07-05T10:11:39.053Z,38.83
2018-07-05T10:12:38.994Z,36.17
2018-07-05T10:14:31.815Z,37.65
2018-07-05T10:15:31.736Z,38.85
2018-07-05T10:17:24.525Z,40.25
2018-07-05T10:18:24.473Z,37.96
2018-07-05T10:20:17.293Z,34.61
2018-07-05T10:21:17.215Z,32.93
2018-07-05T10:23:10.011Z,37.96
2018-07-05T10:24:09.961Z,34.91
2018-07-05T10:26:02.831Z,40.03
2018-07-05T10:27:02.714Z,34.79
2018-07-05T10:28:55.492Z,35.18
2018-07-05T10:29:55.528Z,36.58
2018-07-05T10:31:48.241Z,36.88
2018-07-05T10:32:48.222Z,35.48
2018-07-05T10:34:40.973Z,34.10
2018-07-05T10:35:40.915Z,32.90
2018-07-05T10:37:33.718Z,33.97
2018-07-05T10:38:33.655Z,35.72
2018-07-05T10:40:26.487Z,39.86
2018-07-05T10:41:26.415Z,36.80
2018-07-05T10:43:19.274Z,37.32
2018-07-05T10:44:19.176Z,35.13
2018-07-05T10:46:12.043Z,36.90
2018-07-05T10:47:11.894Z,37.10
2018-07-05T10:49:04.712Z,35.43
2018-07-05T10:50:04.652Z,35.43
2018-07-05T10:51:57.451Z,35.43
2018-07-05T10:52:57.391Z,34.94
2018-07-05T10:54:50.197Z,37.02
2018-07-05T10:55:50.145Z,35.64
2018-07-05T10:57:42.955Z,38.46
2018-07-05T10:58:42.889Z,36.20
2018-07-05T11:00:35.681Z,36.30
2018-07-05T11:01:35.624Z,36.69
2018-07-05T11:03:28.420Z,37.48
2018-07-05T11:04:28.352Z,36.02
2018-07-05T11:06:21.157Z,36.30
2018-07-05T11:07:21.143Z,36.38
2018-07-05T11:09:13.879Z,36.97
2018-07-05T11:10:13.828Z,37.65
2018-07-05T11:12:06.626Z,41.98
2018-07-05T11:13:06.559Z,38.66
2018-07-05T11:14:59.346Z,37.08
2018-07-05T11:15:59.288Z,37.55
2018-07-05T11:17:52.103Z,39.62
2018-07-05T11:18:52.038Z,37.46
2018-07-05T11:20:44.826Z,37.85
2018-07-05T11:21:44.767Z,38.76
2018-07-05T11:23:37.558Z,38.95
2018-07-05T11:24:37.498Z,37.55
2018-07-05T11:26:30.308Z,37.26
2018-07-05T11:27:30.248Z,38.15
2018-07-05T11:29:23.037Z,37.63
2018-07-05T11:30:22.989Z,37.24
2018-07-05T11:32:15.778Z,38.40
2018-07-05T11:33:15.716Z,39.00
2018-07-05T11:35:08.521Z,37.32
2018-07-05T11:36:08.474Z,39.68
2018-07-05T11:38:01.270Z,39.17
2018-07-05T11:39:01.201Z,38.60
2018-07-05T11:40:54.043Z,39.86
2018-07-05T11:41:53.939Z,38.48
2018-07-05T11:43:47.066Z,39.27
2018-07-05T11:44:46.690Z,39.17
2018-07-05T11:46:39.491Z,38.85
2018-07-05T11:47:39.424Z,40.82
2018-07-05T11:49:32.206Z,39.64
2018-07-05T11:50:32.147Z,41.41
2018-07-05T11:52:24.985Z,40.43
2018-07-05T11:53:24.901Z,40.82
2018-07-05T11:55:17.706Z,40.23
2018-07-05T11:56:17.643Z,39.92
2018-07-05T11:58:10.449Z,41.76
2018-07-05T11:59:10.378Z,39.70
2018-07-05T12:01:03.164Z,41.27
2018-07-05T12:02:03.135Z,41.55
2018-07-05T12:03:55.911Z,43.21
2018-07-05T12:04:55.850Z,44.48
2018-07-05T12:06:48.642Z,43.88
2018-07-05T12:07:48.594Z,42.50
2018-07-05T12:09:41.390Z,45.05
2018-07-05T12:10:41.327Z,44.27
2018-07-05T12:12:34.123Z,42.90
2018-07-05T12:13:34.054Z,42.58
2018-07-05T12:15:26.846Z,43.37
2018-07-05T12:16:26.801Z,44.64
2018-07-05T12:18:19.668Z,44.64
2018-07-05T12:19:19.534Z,45.81
2018-07-05T12:21:12.327Z,48.46
2018-07-05T12:22:12.271Z,46.69
2018-07-05T12:24:05.136Z,44.34
2018-07-05T12:25:05.002Z,44.71
2018-07-05T12:26:57.800Z,45.59
2018-07-05T12:27:57.741Z,45.01
2018-07-05T12:29:50.555Z,44.91
2018-07-05T12:30:50.483Z,45.69
2018-07-05T12:32:43.263Z,44.23
2018-07-05T12:33:43.215Z,47.45
2018-07-05T12:35:36.014Z,45.20
2018-07-05T12:36:35.945Z,45.59
2018-07-05T12:38:28.747Z,45.30
2018-07-05T12:39:28.722Z,44.59
2018-07-05T12:41:21.469Z,44.20
2018-07-05T12:42:21.412Z,45.28
2018-07-05T12:44:14.205Z,48.41
2018-07-05T12:45:14.134Z,46.65
2018-07-05T12:47:06.915Z,45.28
2018-07-05T12:48:06.858Z,48.80
2018-07-05T12:49:59.660Z,45.28
2018-07-05T12:50:59.600Z,46.06
2018-07-05T12:52:52.383Z,45.37
2018-07-05T12:53:52.326Z,45.57
2018-07-05T12:55:45.142Z,45.20
2018-07-05T12:56:45.064Z,44.13
2018-07-05T12:58:37.870Z,45.50
2018-07-05T12:59:37.866Z,43.84
2018-07-05T13:01:30.604Z,45.72
2018-07-05T13:02:30.539Z,45.32
2018-07-05T13:04:23.401Z,45.69
2018-07-05T13:05:23.277Z,44.34
2018-07-05T13:07:16.057Z,45.62
2018-07-05T13:08:16.007Z,44.07
2018-07-05T13:10:08.799Z,45.03
2018-07-05T13:11:08.772Z,44.76
2018-07-05T13:13:01.532Z,45.23
2018-07-05T13:14:01.484Z,44.64
2018-07-05T13:15:54.276Z,45.62
2018-07-05T13:16:54.208Z,45.72
2018-07-05T13:18:46.997Z,45.79
2018-07-05T13:19:46.934Z,45.62
2018-07-05T13:21:39.736Z,45.50
2018-07-05T13:22:39.670Z,45.30
2018-07-05T13:24:32.471Z,45.59
2018-07-05T13:25:32.414Z,46.86
2018-07-05T13:27:25.211Z,45.89
2018-07-05T13:28:25.151Z,46.18
2018-07-05T13:30:17.949Z,46.37
2018-07-05T13:31:17.883Z,46.77
2018-07-05T13:33:10.753Z,46.37
2018-07-05T13:34:10.609Z,45.10
2018-07-05T13:36:03.406Z,45.79
2018-07-05T13:37:03.342Z,47.06
2018-07-05T13:38:56.127Z,45.89
2018-07-05T13:39:56.140Z,45.89
2018-07-05T13:41:48.919Z,46.55
2018-07-05T13:42:48.815Z,46.06
2018-07-05T13:44:41.606Z,45.84
2018-07-05T13:45:41.611Z,45.65
2018-07-05T13:47:34.348Z,47.02
2018-07-05T13:48:34.273Z,47.99
2018-07-05T13:50:27.066Z,46.99
2018-07-05T13:51:27.005Z,45.55
2018-07-05T13:53:19.801Z,47.28
2018-07-05T13:54:19.734Z,48.07
2018-07-05T13:56:12.519Z,48.16
2018-07-05T13:57:12.467Z,47.95
2018-07-05T13:59:05.278Z,48.05
2018-07-05T14:00:05.208Z,48.05
2018-07-05T14:01:58.000Z,48.83
2018-07-05T14:02:57.936Z,48.05
2018-07-05T14:04:50.743Z,48.44
2018-07-05T14:05:50.667Z,47.56
2018-07-05T14:07:43.498Z,48.36
2018-07-05T14:08:43.404Z,48.05
2018-07-05T14:10:36.193Z,48.16
2018-07-05T14:11:36.129Z,47.19
2018-07-05T14:13:28.923Z,48.75
2018-07-05T14:14:28.869Z,48.83
2018-07-05T14:16:21.640Z,49.33
2018-07-05T14:17:21.581Z,47.87
2018-07-05T14:19:14.376Z,48.07
2018-07-05T14:20:14.307Z,47.87
2018-07-05T14:22:07.123Z,48.26
2018-07-05T14:23:07.069Z,48.75
2018-07-05T14:24:59.956Z,49.33
2018-07-05T14:25:59.824Z,49.41
2018-07-05T14:27:52.605Z,49.22
2018-07-05T14:28:52.642Z,47.75
2018-07-05T14:30:45.358Z,48.93
2018-07-05T14:31:45.269Z,48.73
2018-07-05T14:33:38.049Z,48.34
2018-07-05T14:34:37.999Z,48.24
2018-07-05T14:36:30.797Z,48.55
2018-07-05T14:37:30.720Z,49.02
2018-07-05T14:39:23.530Z,49.53
2018-07-05T14:40:23.446Z,48.44
2018-07-05T14:42:16.218Z,48.26
2018-07-05T14:43:16.165Z,48.65
2018-07-05T14:45:08.963Z,48.05
2018-07-05T14:46:08.913Z,48.34
2018-07-05T14:48:01.680Z,48.24
2018-07-05T14:49:01.628Z,48.63
2018-07-05T14:50:54.430Z,49.22
2018-07-05T14:51:54.355Z,49.90
2018-07-05T14:53:47.158Z,49.43
2018-07-05T14:54:47.103Z,48.75
2018-07-05T14:56:39.913Z,48.93
2018-07-05T14:57:39.845Z,48.83
2018-07-05T14:59:32.636Z,48.24
2018-07-05T15:00:32.611Z,48.14
2018-07-05T15:02:25.405Z,48.54
2018-07-05T15:03:25.339Z,48.54
2018-07-05T15:05:18.120Z,48.93
2018-07-05T15:06:18.063Z,48.34
2018-07-05T15:08:10.864Z,48.55
2018-07-05T15:09:10.817Z,48.34
2018-07-05T15:11:03.703Z,48.26
2018-07-05T15:12:03.524Z,48.34
2018-07-05T15:13:56.313Z,47.07
2018-07-05T15:14:56.264Z,47.17
2018-07-05T15:16:49.125Z,46.78
2018-07-05T15:17:49.004Z,47.85
2018-07-05T15:19:41.780Z,47.46
2018-07-05T15:20:41.726Z,48.14
2018-07-05T15:22:34.532Z,48.34
2018-07-05T15:23:34.447Z,48.34
2018-07-05T15:25:27.246Z,48.44
2018-07-05T15:26:27.187Z,48.05
2018-07-05T15:28:19.994Z,47.66
2018-07-05T15:29:19.956Z,48.54
2018-07-05T15:31:12.741Z,48.83
2018-07-05T15:32:12.666Z,48.44
2018-07-05T15:34:05.457Z,48.24
2018-07-05T15:35:05.393Z,48.73
2018-07-05T15:36:58.181Z,48.34
2018-07-05T15:37:58.113Z,48.90
2018-07-05T15:39:50.898Z,49.88
2018-07-05T15:40:50.851Z,49.49
2018-07-05T15:42:43.627Z,49.00
2018-07-05T15:43:43.559Z,48.41
2018-07-05T15:45:36.346Z,48.90
2018-07-05T15:46:36.323Z,48.41
2018-07-05T15:48:29.108Z,48.80
2018-07-05T15:49:29.032Z,49.19
2018-07-05T15:51:21.829Z,49.49
2018-07-05T15:52:21.769Z,48.90
2018-07-05T15:54:14.561Z,48.22
2018-07-05T15:55:14.491Z,48.88
2018-07-05T15:57:07.312Z,48.19
2018-07-05T15:58:07.259Z,49.17
2018-07-05T16:00:00.053Z,49.76
2018-07-05T16:00:59.978Z,50.24
2018-07-05T16:02:52.761Z,48.80
2018-07-05T16:03:52.718Z,49.17
2018-07-05T16:05:45.505Z,48.39
2018-07-05T16:06:45.433Z,48.39
2018-07-05T16:08:38.246Z,48.78
2018-07-05T16:09:38.160Z,48.68
2018-07-05T16:11:30.948Z,49.37
2018-07-05T16:12:30.881Z,48.88
2018-07-05T16:14:23.697Z,49.17
2018-07-05T16:15:23.613Z,48.29
2018-07-05T16:17:16.377Z,48.78
2018-07-05T16:18:16.322Z,48.88
2018-07-05T16:20:09.119Z,49.46
2018-07-05T16:21:09.050Z,47.88
2018-07-05T16:23:01.830Z,47.88
2018-07-05T16:24:01.774Z,49.24
2018-07-05T16:25:54.568Z,49.05
2018-07-05T16:26:54.507Z,48.66
2018-07-05T16:28:47.284Z,49.24
2018-07-05T16:29:47.222Z,49.44
2018-07-05T16:31:40.034Z,48.85
2018-07-05T16:32:39.953Z,47.88
2018-07-05T16:34:32.765Z,48.56
2018-07-05T16:35:32.682Z,48.85
2018-07-05T16:37:25.494Z,48.46
2018-07-05T16:38:25.421Z,47.97
2018-07-05T16:40:18.233Z,47.78
2018-07-05T16:41:18.166Z,47.88
2018-07-05T16:43:10.951Z,47.68
2018-07-05T16:44:10.891Z,47.36
2018-07-05T16:46:03.732Z,48.14
2018-07-05T16:47:03.637Z,48.05
2018-07-05T16:48:56.425Z,48.14
2018-07-05T16:49:56.371Z,48.34
2018-07-05T16:51:49.172Z,50.68
2018-07-05T16:52:49.096Z,50.09
2018-07-05T16:54:41.924Z,53.11
2018-07-05T16:55:41.820Z,52.63
2018-07-05T16:57:34.608Z,51.75
2018-07-05T16:58:34.551Z,52.63
2018-07-05T17:00:27.338Z,51.56
2018-07-05T17:01:27.279Z,50.78
2018-07-05T17:03:20.148Z,50.58
2018-07-05T17:04:19.999Z,52.02
2018-07-05T17:06:12.781Z,51.53
2018-07-05T17:07:12.725Z,51.63
2018-07-05T17:09:05.518Z,51.53
2018-07-05T17:10:05.453Z,54.06
2018-07-05T17:11:58.247Z,52.70
2018-07-05T17:12:58.225Z,50.56
2018-07-05T17:14:50.963Z,50.26
2018-07-05T17:15:50.935Z,51.63
2018-07-05T17:17:43.736Z,51.82
2018-07-05T17:18:43.662Z,51.63
2018-07-05T17:20:36.428Z,49.29
2018-07-05T17:21:36.372Z,51.41
2018-07-05T17:23:41.910Z,51.43
2018-07-05T17:24:41.841Z,48.68
2018-07-05T17:26:34.637Z,47.32
2018-07-05T17:27:34.583Z,50.73
2018-07-05T17:29:27.392Z,50.63
2018-07-05T17:30:27.306Z,49.76
2018-07-05T17:32:20.085Z,50.34
2018-07-05T17:33:20.069Z,51.02
2018-07-05T17:35:12.807Z,50.63
2018-07-05T17:36:12.736Z,51.51
2018-07-05T17:38:05.943Z,49.56
2018-07-05T17:39:05.458Z,50.04
2018-07-05T17:40:58.371Z,50.34
2018-07-05T17:41:58.180Z,49.46
2018-07-05T17:43:50.972Z,48.68
2018-07-05T17:44:50.896Z,51.02
2018-07-05T17:46:43.683Z,50.04
2018-07-05T17:47:43.631Z,49.46
2018-07-05T17:49:36.429Z,49.63
2018-07-05T17:50:36.381Z,49.15
2018-07-05T17:52:29.141Z,50.80
2018-07-05T17:53:29.075Z,49.05
2018-07-05T17:55:21.867Z,50.80
2018-07-05T17:56:21.793Z,51.19
2018-07-05T17:58:14.588Z,49.15
2018-07-05T17:59:14.521Z,50.60
2018-07-05T18:01:07.302Z,50.41
2018-07-05T18:02:07.247Z,50.60
2018-07-05T18:04:00.039Z,50.19
2018-07-05T18:04:59.965Z,51.26
2018-07-05T18:06:52.733Z,50.78
2018-07-05T18:07:52.682Z,49.99
2018-07-05T18:09:45.461Z,50.09
2018-07-05T18:10:45.401Z,50.19
2018-07-05T18:12:38.262Z,50.97
2018-07-05T18:13:38.116Z,51.26
2018-07-05T18:15:30.936Z,51.84
2018-07-05T18:16:30.862Z,50.68
2018-07-05T18:18:23.609Z,50.87
2018-07-05T18:19:23.559Z,51.36
2018-07-05T18:21:16.364Z,50.68
2018-07-05T18:22:16.367Z,49.80
2018-07-05T18:24:09.099Z,49.27
2018-07-05T18:25:09.079Z,49.46
2018-07-05T18:27:01.883Z,49.92
2018-07-05T18:28:01.965Z,48.27
2018-07-05T18:29:54.594Z,51.39
2018-07-05T18:30:54.530Z,50.68
2018-07-05T18:32:47.331Z,52.14